createdAt,value
2022-08-11T00:01:29.403Z,2.22
2022-08-11T00:04:04.855Z,2.40
2022-08-11T00:06:35.258Z,2.47
2022-08-11T00:09:08.776Z,2.30
2022-08-11T00:11:39.945Z,2.33
2022-08-11T00:14:23.259Z,2.20
2022-08-11T00:17:08.683Z,2.43
2022-08-11T00:20:15.099Z,2.38
2022-08-11T00:22:33.936Z,2.63
2022-08-11T00:25:10.438Z,2.40
2022-08-11T00:27:39.411Z,2.30
2022-08-11T00:30:08.289Z,2.42
2022-08-11T00:32:40.108Z,2.70
2022-08-11T00:35:55.088Z,2.30
2022-08-11T00:37:59.934Z,2.20
2022-08-11T00:41:11.728Z,2.40
2022-08-11T00:44:07.874Z,2.50
2022-08-11T00:46:50.121Z,2.38
2022-08-11T00:49:29.763Z,2.20
2022-08-11T00:52:35.803Z,2.20
2022-08-11T00:55:34.144Z,2.42
2022-08-11T00:58:26.454Z,2.38
2022-08-11T01:01:16.885Z,2.15
2022-08-11T01:04:16.149Z,2.30
2022-08-11T01:06:52.116Z,2.38
2022-08-11T01:09:37.298Z,2.42
2022-08-11T01:12:37.733Z,2.50
2022-08-11T01:15:41.957Z,2.33
2022-08-11T01:18:48.730Z,2.28
2022-08-11T01:21:18.263Z,2.40
2022-08-11T01:23:48.275Z,2.50
2022-08-11T01:26:46.283Z,2.50
2022-08-11T01:29:24.702Z,2.40
2022-08-11T01:32:43.578Z,2.42
2022-08-11T01:35:19.147Z,2.53
2022-08-11T01:38:11.786Z,2.30
2022-08-11T01:40:56.554Z,2.78
2022-08-11T01:44:00.797Z,2.53
2022-08-11T01:46:36.244Z,2.67
2022-08-11T01:50:08.403Z,2.53
2022-08-11T01:53:03.767Z,2.42
2022-08-11T01:55:59.729Z,3.60
2022-08-11T01:58:44.145Z,3.20
2022-08-11T02:01:52.506Z,2.63
2022-08-11T02:04:53.093Z,2.60
2022-08-11T02:07:37.919Z,2.53
2022-08-11T02:10:50.757Z,2.50
2022-08-11T02:13:42.075Z,3.00
2022-08-11T02:16:53.416Z,2.78
2022-08-11T02:20:04.723Z,2.75
2022-08-11T02:23:08.006Z,2.55
2022-08-11T02:25:45.291Z,2.60
2022-08-11T02:28:46.505Z,2.85
2022-08-11T02:32:23.792Z,2.80
2022-08-11T02:34:59.396Z,2.50
2022-08-11T02:37:33.331Z,2.53
2022-08-11T02:40:03.405Z,2.60
2022-08-11T02:42:45.712Z,2.80
2022-08-11T02:45:12.700Z,2.80
2022-08-11T02:48:05.271Z,2.70
2022-08-11T02:50:39.924Z,2.50
2022-08-11T02:53:17.003Z,2.70
2022-08-11T02:55:59.067Z,3.13
2022-08-11T02:59:17.656Z,2.80
2022-08-11T03:01:51.179Z,2.80
2022-08-11T03:04:25.522Z,2.88
2022-08-11T03:07:28.702Z,2.65
2022-08-11T03:10:19.563Z,2.80
2022-08-11T03:13:09.498Z,2.72
2022-08-11T03:16:09.810Z,2.60
2022-08-11T03:18:48.137Z,2.63
2022-08-11T03:21:22.000Z,2.67
2022-08-11T03:24:01.686Z,2.80
2022-08-11T03:26:53.946Z,2.65
2022-08-11T03:29:32.084Z,2.58
2022-08-11T03:32:10.062Z,3.15
2022-08-11T03:34:39.443Z,3.25
2022-08-11T03:37:35.021Z,2.83
2022-08-11T03:40:13.727Z,3.40
2022-08-11T03:42:49.182Z,3.05
2022-08-11T03:45:28.476Z,3.10
2022-08-11T03:48:23.122Z,3.70
2022-08-11T03:53:47.884Z,2.90
2022-08-11T03:56:52.870Z,2.58
2022-08-11T04:02:08.026Z,3.10
2022-08-11T04:05:12.996Z,3.20
2022-08-11T04:10:41.723Z,3.05
2022-08-11T04:13:30.334Z,3.40
2022-08-11T04:16:29.693Z,3.45
2022-08-11T04:19:18.345Z,3.20
2022-08-11T04:22:07.208Z,3.10
2022-08-11T04:24:56.713Z,3.00
2022-08-11T04:27:45.376Z,3.30
2022-08-11T04:30:23.217Z,2.92
2022-08-11T04:32:59.884Z,2.58
2022-08-11T04:35:51.403Z,3.13
2022-08-11T04:38:55.956Z,2.92
2022-08-11T04:42:17.564Z,2.75
2022-08-11T04:45:19.998Z,3.00
2022-08-11T04:48:34.486Z,3.25
2022-08-11T04:51:47.948Z,2.80
2022-08-11T04:54:54.571Z,3.20
2022-08-11T04:57:59.890Z,3.20
2022-08-11T05:00:56.613Z,3.15
2022-08-11T05:03:44.008Z,3.13
2022-08-11T05:06:44.069Z,3.58
2022-08-11T05:09:16.730Z,3.40
2022-08-11T05:11:49.643Z,3.20
2022-08-11T05:14:52.430Z,3.88
2022-08-11T05:17:53.028Z,3.67
2022-08-11T05:20:40.030Z,3.10
2022-08-11T05:23:28.755Z,3.10
2022-08-11T05:26:47.885Z,2.80
2022-08-11T05:29:26.624Z,3.22
2022-08-11T05:32:19.832Z,3.45
2022-08-11T05:34:54.966Z,3.30
2022-08-11T05:37:33.238Z,3.20
2022-08-11T05:40:30.623Z,3.30
2022-08-11T05:43:20.084Z,3.30
2022-08-11T05:46:17.434Z,3.17
2022-08-11T05:49:03.804Z,3.33
2022-08-11T05:52:12.948Z,3.17
2022-08-11T05:55:06.931Z,3.28
2022-08-11T05:57:51.303Z,3.22
2022-08-11T06:00:19.661Z,3.50
2022-08-11T06:02:51.215Z,3.00
2022-08-11T06:05:19.618Z,3.40
2022-08-11T06:07:50.149Z,4.32
2022-08-11T06:10:46.732Z,3.95
2022-08-11T06:13:18.133Z,4.07
2022-08-11T06:15:50.728Z,3.80
2022-08-11T06:18:18.447Z,3.60
2022-08-11T06:20:50.333Z,3.58
2022-08-11T06:23:23.329Z,3.90
2022-08-11T06:25:56.264Z,4.10
2022-08-11T06:28:34.625Z,4.10
2022-08-11T06:31:11.672Z,3.95
2022-08-11T06:33:51.716Z,3.80
2022-08-11T06:36:34.727Z,3.45
2022-08-11T06:39:10.232Z,3.42
2022-08-11T06:41:46.798Z,3.38
2022-08-11T06:44:13.543Z,3.92
2022-08-11T06:46:43.154Z,3.40
2022-08-11T06:49:34.700Z,3.30
2022-08-11T06:52:04.790Z,3.25
2022-08-11T06:54:36.955Z,3.08
2022-08-11T06:57:31.926Z,3.17
2022-08-11T07:00:28.115Z,3.40
2022-08-11T07:03:13.419Z,3.00
2022-08-11T07:05:54.091Z,2.90
2022-08-11T07:09:01.861Z,3.22
2022-08-11T07:12:08.648Z,3.03
2022-08-11T07:15:00.295Z,3.15
2022-08-11T07:17:30.594Z,3.20
2022-08-11T07:20:19.712Z,2.65
2022-08-11T07:23:17.831Z,2.88
2022-08-11T07:26:08.726Z,2.70
2022-08-11T07:28:55.403Z,2.30
2022-08-11T07:31:34.179Z,2.50
2022-08-11T07:34:28.131Z,2.92
2022-08-11T07:36:58.696Z,2.92
2022-08-11T07:39:32.791Z,2.90
2022-08-11T07:42:04.922Z,2.78
2022-08-11T07:44:52.701Z,2.72
2022-08-11T07:47:38.443Z,2.65
2022-08-11T07:50:25.217Z,2.30
2022-08-11T07:52:53.986Z,2.80
2022-08-11T07:55:48.777Z,2.85
2022-08-11T07:58:41.428Z,2.63
2022-08-11T08:01:38.246Z,3.03
2022-08-11T08:04:26.090Z,2.80
2022-08-11T08:07:12.152Z,2.80
2022-08-11T08:09:59.493Z,2.65
2022-08-11T08:12:45.836Z,2.80
2022-08-11T08:15:34.139Z,2.67
2022-08-11T08:18:09.745Z,2.70
2022-08-11T08:20:51.009Z,3.08
2022-08-11T08:23:33.304Z,3.20
2022-08-11T08:26:04.528Z,2.92
2022-08-11T08:28:32.912Z,2.72
2022-08-11T08:31:00.520Z,2.95
2022-08-11T08:33:30.535Z,2.92
2022-08-11T08:36:12.878Z,3.40
2022-08-11T08:38:54.135Z,3.35
2022-08-11T08:41:27.864Z,3.45
2022-08-11T08:44:15.136Z,3.15
2022-08-11T08:46:50.748Z,3.25
2022-08-11T08:49:27.705Z,3.10
2022-08-11T08:52:19.962Z,3.45
2022-08-11T08:54:46.158Z,3.35
2022-08-11T08:57:14.093Z,3.55
2022-08-11T08:59:48.976Z,3.30
2022-08-11T09:02:33.582Z,3.30
2022-08-11T09:05:04.586Z,3.42
2022-08-11T09:07:38.581Z,3.22
2022-08-11T09:10:09.172Z,3.40
2022-08-11T09:12:39.355Z,3.60
2022-08-11T09:15:09.244Z,3.35
2022-08-11T09:17:41.329Z,3.60
2022-08-11T09:20:21.902Z,3.22
2022-08-11T09:26:34.628Z,3.40
2022-08-11T09:29:02.904Z,3.78
2022-08-11T09:31:39.815Z,4.15
2022-08-11T09:34:08.402Z,3.42
2022-08-11T09:36:54.016Z,3.55
2022-08-11T09:39:40.007Z,3.10
2022-08-11T09:42:11.244Z,3.05
2022-08-11T09:44:53.194Z,3.20
2022-08-11T09:47:27.944Z,3.20
2022-08-11T09:50:01.634Z,3.47
2022-08-11T09:52:36.504Z,3.00
2022-08-11T09:55:11.105Z,3.30
2022-08-11T09:58:03.660Z,3.40
2022-08-11T10:00:40.273Z,3.72
2022-08-11T10:03:12.628Z,3.40
2022-08-11T10:06:07.280Z,3.45
2022-08-11T10:08:38.029Z,3.60
2022-08-11T10:11:07.765Z,3.47
2022-08-11T10:14:33.748Z,3.53
2022-08-11T10:16:43.268Z,3.90
2022-08-11T10:19:11.049Z,3.65
2022-08-11T10:22:24.095Z,3.03
2022-08-11T10:25:14.555Z,3.67
2022-08-11T10:28:33.015Z,3.05
2022-08-11T10:30:59.016Z,3.70
2022-08-11T10:33:57.619Z,3.35
2022-08-11T10:36:43.115Z,3.78
2022-08-11T10:39:18.051Z,3.72
2022-08-11T10:42:08.352Z,3.40
2022-08-11T10:44:42.358Z,3.15
2022-08-11T10:47:31.286Z,3.85
2022-08-11T10:50:17.099Z,3.58
2022-08-11T10:53:06.216Z,3.80
2022-08-11T10:55:52.790Z,3.40
2022-08-11T10:58:39.713Z,3.95
2022-08-11T11:01:06.977Z,3.63
2022-08-11T11:03:36.686Z,3.90
2022-08-11T11:06:34.699Z,3.63
2022-08-11T11:09:08.965Z,3.83
2022-08-11T11:11:58.136Z,3.80
2022-08-11T11:14:56.414Z,3.75
2022-08-11T11:17:48.448Z,3.58
2022-08-11T11:20:36.114Z,3.58
2022-08-11T11:23:11.404Z,3.92
2022-08-11T11:25:44.022Z,3.60
2022-08-11T11:28:21.474Z,3.47
2022-08-11T11:31:15.767Z,3.60
2022-08-11T11:34:26.801Z,3.40
2022-08-11T11:36:56.218Z,3.28
2022-08-11T11:39:28.938Z,3.55
2022-08-11T11:41:59.573Z,3.20
2022-08-11T11:44:27.779Z,3.30
2022-08-11T11:46:56.750Z,3.50
2022-08-11T11:49:27.742Z,3.25
2022-08-11T11:51:57.083Z,3.50
2022-08-11T11:54:26.666Z,3.38
2022-08-11T11:56:55.400Z,3.20
2022-08-11T11:59:43.406Z,3.28
2022-08-11T12:02:13.187Z,3.40
2022-08-11T12:04:43.498Z,3.30
2022-08-11T12:08:05.015Z,3.33
2022-08-11T12:10:38.273Z,3.60
2022-08-11T12:13:24.624Z,3.30
2022-08-11T12:16:32.391Z,3.03
2022-08-11T12:18:41.939Z,3.00
2022-08-11T12:21:10.378Z,3.30
2022-08-11T12:24:02.275Z,3.30
2022-08-11T12:29:41.133Z,2.85
2022-08-11T12:32:10.806Z,3.20
2022-08-11T12:34:37.732Z,2.90
2022-08-11T12:37:10.909Z,3.42
2022-08-11T12:40:16.002Z,3.38
2022-08-11T12:43:21.204Z,3.22
2022-08-11T12:45:58.472Z,3.10
2022-08-11T12:48:58.358Z,3.05
2022-08-11T12:52:12.292Z,3.08
2022-08-11T12:55:00.684Z,2.95
2022-08-11T12:57:59.219Z,3.20
2022-08-11T13:00:46.356Z,2.80
2022-08-11T13:03:33.256Z,2.72
2022-08-11T13:06:02.733Z,3.40
2022-08-11T13:08:33.058Z,3.10
2022-08-11T13:11:20.278Z,3.08
2022-08-11T13:13:55.500Z,3.00
2022-08-11T13:16:29.142Z,3.15
2022-08-11T13:18:58.851Z,3.10
2022-08-11T13:21:27.178Z,3.40
2022-08-11T13:24:00.792Z,3.00
2022-08-11T13:26:43.656Z,3.08
2022-08-11T13:29:22.495Z,3.00
2022-08-11T13:31:50.916Z,3.40
2022-08-11T13:34:19.998Z,3.20
2022-08-11T13:36:52.713Z,3.10
2022-08-11T13:39:25.034Z,3.70
2022-08-11T13:44:29.992Z,3.40
2022-08-11T13:47:01.667Z,3.10
2022-08-11T13:49:35.801Z,3.30
2022-08-11T13:52:04.409Z,3.08
2022-08-11T13:54:34.706Z,3.33
2022-08-11T13:57:08.989Z,3.20
2022-08-11T13:59:49.969Z,3.15
2022-08-11T14:02:29.551Z,3.47
2022-08-11T14:04:58.884Z,3.33
2022-08-11T14:07:34.774Z,3.60
2022-08-11T14:10:02.364Z,2.90
2022-08-11T14:12:52.054Z,3.50
2022-08-11T14:15:31.923Z,3.13
2022-08-11T14:18:06.345Z,3.35
2022-08-11T14:20:56.017Z,3.50
2022-08-11T14:23:29.590Z,3.55
2022-08-11T14:26:32.785Z,3.60
2022-08-11T14:29:09.998Z,3.38
2022-08-11T14:31:45.778Z,3.50
2022-08-11T14:34:14.728Z,4.03
2022-08-11T14:36:52.118Z,3.55
2022-08-11T14:39:23.751Z,3.47
2022-08-11T14:42:14.265Z,4.05
2022-08-11T14:45:05.733Z,3.63
2022-08-11T14:47:37.685Z,3.50
2022-08-11T14:50:10.974Z,3.60
2022-08-11T14:52:43.329Z,3.63
2022-08-11T14:55:30.774Z,3.67
2022-08-11T14:57:58.560Z,3.45
2022-08-11T15:00:26.030Z,3.35
2022-08-11T15:03:13.553Z,3.47
2022-08-11T15:05:58.346Z,3.83
2022-08-11T15:08:56.605Z,3.63
2022-08-11T15:11:47.657Z,3.50
2022-08-11T15:14:35.282Z,3.20
2022-08-11T15:17:08.553Z,3.38
2022-08-11T15:19:41.047Z,3.40
2022-08-11T15:22:45.140Z,3.63
2022-08-11T15:27:59.696Z,3.30
2022-08-11T15:30:45.410Z,3.42
2022-08-11T15:33:35.515Z,3.28
2022-08-11T15:36:24.828Z,3.03
2022-08-11T15:38:57.198Z,3.30
2022-08-11T15:41:58.357Z,3.28
2022-08-11T15:45:04.794Z,3.03
2022-08-11T15:47:44.739Z,3.22
2022-08-11T15:50:19.696Z,3.20
2022-08-11T15:53:05.330Z,3.40
2022-08-11T15:55:35.221Z,3.05
2022-08-11T15:58:26.224Z,2.90
2022-08-11T16:01:13.515Z,2.92
2022-08-11T16:04:09.655Z,3.30
2022-08-11T16:06:49.695Z,3.22
2022-08-11T16:09:21.996Z,3.20
2022-08-11T16:11:49.953Z,3.28
2022-08-11T16:14:37.481Z,2.78
2022-08-11T16:17:07.013Z,3.15
2022-08-11T16:19:36.505Z,3.42
2022-08-11T16:22:07.943Z,3.28
2022-08-11T16:27:06.060Z,3.15
2022-08-11T16:27:26.933Z,3.20
2022-08-11T16:29:56.309Z,3.20
2022-08-11T16:32:25.789Z,3.10
2022-08-11T16:35:17.957Z,3.03
2022-08-11T16:38:04.485Z,3.20
2022-08-11T16:40:33.600Z,3.15
2022-08-11T16:43:21.741Z,3.10
2022-08-11T16:46:08.139Z,3.53
2022-08-11T16:48:38.790Z,3.38
2022-08-11T16:51:07.810Z,3.30
2022-08-11T16:54:00.218Z,3.33
2022-08-11T16:56:34.218Z,3.42
2022-08-11T16:59:15.832Z,3.78
2022-08-11T17:02:05.341Z,3.50
2022-08-11T17:04:56.874Z,3.45
2022-08-11T17:07:45.867Z,3.53
2022-08-11T17:10:53.688Z,3.28
2022-08-11T17:13:27.997Z,3.03
2022-08-11T17:16:12.242Z,3.42
2022-08-11T17:19:00.361Z,3.42
2022-08-11T17:22:00.419Z,3.15
2022-08-11T17:24:28.392Z,3.70
2022-08-11T17:26:59.799Z,3.65
2022-08-11T17:29:54.084Z,3.53
2022-08-11T17:33:00.531Z,3.38
2022-08-11T17:35:35.970Z,3.60
2022-08-11T17:38:21.541Z,3.05
2022-08-11T17:41:10.780Z,3.50
2022-08-11T17:44:10.269Z,3.47
2022-08-11T17:47:01.034Z,3.25
2022-08-11T17:49:37.870Z,3.20
2022-08-11T17:52:24.823Z,3.20
2022-08-11T17:55:13.443Z,3.30
2022-08-11T17:58:00.142Z,3.28
2022-08-11T18:00:27.291Z,3.10
2022-08-11T18:03:14.713Z,4.05
2022-08-11T18:05:44.548Z,3.60
2022-08-11T18:08:31.972Z,3.60
2022-08-11T18:12:06.826Z,3.30
2022-08-11T18:14:27.460Z,3.72
2022-08-11T18:17:12.968Z,3.45
2022-08-11T18:19:58.274Z,3.40
2022-08-11T18:22:55.754Z,3.47
2022-08-11T18:25:51.246Z,3.45
2022-08-11T18:28:42.811Z,3.03
2022-08-11T18:31:31.680Z,3.10
2022-08-11T18:34:24.337Z,3.35
2022-08-11T18:37:34.792Z,3.65
2022-08-11T18:40:30.784Z,3.35
2022-08-11T18:43:19.847Z,3.33
2022-08-11T18:46:10.932Z,3.25
2022-08-11T18:49:14.536Z,3.35
2022-08-11T18:52:05.486Z,3.40
2022-08-11T18:54:55.304Z,3.15
2022-08-11T18:57:53.783Z,3.35
2022-08-11T19:00:42.179Z,3.67
2022-08-11T19:03:31.325Z,3.20
2022-08-11T19:06:39.263Z,3.33
2022-08-11T19:09:30.709Z,3.60
2022-08-11T19:12:17.729Z,3.13
2022-08-11T19:15:04.312Z,3.85
2022-08-11T19:17:51.398Z,3.80
2022-08-11T19:20:40.649Z,4.05
2022-08-11T19:23:28.966Z,3.83
2022-08-11T19:26:15.835Z,3.58
2022-08-11T19:29:03.151Z,3.45
2022-08-11T19:31:49.442Z,3.63
2022-08-11T19:34:37.292Z,3.10
2022-08-11T19:37:25.818Z,3.50
2022-08-11T19:40:19.834Z,3.67
2022-08-11T19:43:23.375Z,3.90
2022-08-11T19:46:15.928Z,3.60
2022-08-11T19:49:03.263Z,4.40
2022-08-11T19:51:53.358Z,4.30
2022-08-11T19:54:44.274Z,4.03
2022-08-11T19:57:33.581Z,3.80
2022-08-11T20:00:30.472Z,3.90
2022-08-11T20:03:20.100Z,3.63
2022-08-11T20:06:08.382Z,4.47
2022-08-11T20:08:58.760Z,3.78
2022-08-11T20:11:48.687Z,3.53
2022-08-11T20:14:36.948Z,4.40
2022-08-11T20:17:25.112Z,4.10
2022-08-11T20:20:11.170Z,3.80
2022-08-11T20:22:57.927Z,3.95
2022-08-11T20:25:45.355Z,4.22
2022-08-11T20:28:32.813Z,4.95
2022-08-11T20:31:18.218Z,4.30
2022-08-11T20:34:04.452Z,4.55
2022-08-11T20:36:54.826Z,4.30
2022-08-11T20:39:43.349Z,4.05
2022-08-11T20:42:31.266Z,4.22
2022-08-11T20:45:23.995Z,4.20
2022-08-11T20:48:14.689Z,5.20
2022-08-11T20:51:06.277Z,4.88
2022-08-11T20:53:58.026Z,4.43
2022-08-11T20:56:46.340Z,4.70
2022-08-11T20:59:50.122Z,4.82
2022-08-11T21:02:40.911Z,5.32
2022-08-11T21:06:09.684Z,4.43
2022-08-11T21:08:38.135Z,4.38
2022-08-11T21:11:28.215Z,3.80
2022-08-11T21:14:14.392Z,4.05
2022-08-11T21:17:04.592Z,4.20
2022-08-11T21:20:20.623Z,4.15
2022-08-11T21:23:23.964Z,4.80
2022-08-11T21:26:15.473Z,4.10
2022-08-11T21:29:02.554Z,4.30
2022-08-11T21:31:50.465Z,4.85
2022-08-11T21:34:39.048Z,4.70
2022-08-11T21:37:26.931Z,4.35
2022-08-11T21:40:16.936Z,4.30
2022-08-11T21:43:05.891Z,4.35
2022-08-11T21:45:55.237Z,4.40
2022-08-11T21:48:43.374Z,4.03
2022-08-11T21:51:28.577Z,4.05
2022-08-11T21:54:16.546Z,4.55
2022-08-11T21:57:03.547Z,3.88
2022-08-11T22:00:03.517Z,3.80
2022-08-11T22:02:53.279Z,4.65
2022-08-11T22:05:39.828Z,4.13
2022-08-11T22:08:26.199Z,4.30
2022-08-11T22:11:11.988Z,4.35
2022-08-11T22:14:06.313Z,3.80
2022-08-11T22:16:54.304Z,4.10
2022-08-11T22:19:41.922Z,4.18
2022-08-11T22:22:29.421Z,4.20
2022-08-11T22:25:18.519Z,4.40
2022-08-11T22:28:04.690Z,4.03
2022-08-11T22:30:50.220Z,4.03
2022-08-11T22:33:36.689Z,4.13
2022-08-11T22:36:29.720Z,3.97
2022-08-11T22:39:18.973Z,4.95
2022-08-11T22:42:05.236Z,4.55
2022-08-11T22:44:51.144Z,3.95
2022-08-11T22:47:40.474Z,4.18
2022-08-11T22:50:29.120Z,4.10
2022-08-11T22:53:16.515Z,4.20
2022-08-11T22:56:02.342Z,3.95
2022-08-11T22:58:50.387Z,3.95
2022-08-11T23:01:37.400Z,3.88
2022-08-11T23:04:24.282Z,3.88
2022-08-11T23:07:10.583Z,4.35
2022-08-11T23:09:57.636Z,4.38
2022-08-11T23:12:47.494Z,4.00
2022-08-11T23:15:33.760Z,4.13
2022-08-11T23:18:23.540Z,3.80
2022-08-11T23:21:09.774Z,4.18
2022-08-11T23:23:55.542Z,4.20
2022-08-11T23:26:42.830Z,4.25
2022-08-11T23:29:29.573Z,4.65
2022-08-11T23:32:15.832Z,4.22
2022-08-11T23:35:37.815Z,3.90
2022-08-11T23:38:11.179Z,4.38
2022-08-11T23:40:57.512Z,3.83
2022-08-11T23:43:43.406Z,4.47
2022-08-11T23:46:28.943Z,4.32
2022-08-11T23:49:21.923Z,4.50
2022-08-11T23:52:08.544Z,4.63
2022-08-11T23:54:54.384Z,4.40
2022-08-11T23:57:42.241Z,4.13
